Time;durP1;ratioP1;P1;durP2;ratioP2;P2;SDS_P1;SDS_P2;PMS_P1;PMS_P2;Temp;Humidity;BMP_temperature;BMP_pressure;BME280_temperature;BME280_humidity;BME280_pressure;Samples;Min_cycle;Max_cycle;Signal;HPM_P1;HPM_P2
2023/07/05 00:01:18;;;;;;;11.08;7.55;;;;;;;21.89;63.48;100404.84;1744053;82;21102;-68
2023/07/05 00:03:46;;;;;;;11.85;7.40;;;;;;;21.83;63.77;100397.55;1743863;82;21043;-68
2023/07/05 00:06:15;;;;;;;11.88;7.00;;;;;;;;;;1744142;82;21038;-68
2023/07/05 00:08:45;;;;;;;13.03;6.92;;;;;;;21.72;64.22;100400.02;1743582;82;21083;-69
2023/07/05 00:11:15;;;;;;;10.20;7.05;;;;;;;21.69;64.26;100402.80;1743965;82;21035;-67
2023/07/05 00:13:46;;;;;;;11.70;7.15;;;;;;;21.63;64.39;100402.48;1744021;82;21031;-68
2023/07/05 00:16:15;;;;;;;11.20;6.67;;;;;;;21.54;64.62;100394.34;1743699;82;21475;-67
2023/07/05 00:18:44;;;;;;;11.55;7.40;;;;;;;21.48;64.92;100389.85;1743687;82;21066;-70
2023/07/05 00:21:13;;;;;;;10.55;7.47;;;;;;;21.39;65.24;100388.65;1743887;82;21016;-67
2023/07/05 00:23:46;;;;;;;11.40;7.37;;;;;;;21.32;65.51;100389.44;1743777;82;21035;-69
2023/07/05 00:26:15;;;;;;;17.02;7.20;;;;;;;21.29;65.69;100387.20;1743816;82;21047;-68
2023/07/05 00:28:44;;;;;;;12.23;7.22;;;;;;;21.29;65.75;100383.85;1743905;82;21016;-68
2023/07/05 00:31:13;;;;;;;11.22;7.47;;;;;;;21.30;65.76;100377.72;1744005;82;21058;-68
2023/07/05 00:33:42;;;;;;;12.68;7.40;;;;;;;21.28;65.75;100388.30;1743998;82;21090;-68
2023/07/05 00:36:11;;;;;;;11.73;7.50;;;;;;;21.23;65.78;100390.50;1743880;82;21039;-67
2023/07/05 00:38:41;;;;;;;13.25;7.80;;;;;;;21.19;65.94;100391.56;1723118;82;21095;-68
2023/07/05 00:41:09;;;;;;;10.48;7.28;;;;;;;21.11;66.09;100396.23;1744012;82;21023;-68
2023/07/05 00:43:38;;;;;;;13.45;7.35;;;;;;;21.06;66.42;100405.11;1743975;82;21039;-69
2023/07/05 00:46:25;;;;;;;12.20;7.87;;;;;;;21.04;66.67;100410.11;1743875;82;21743;-69
2023/07/05 00:48:57;;;;;;;;;;;;;;;21.06;66.80;100411.52;1746660;82;21422;-68
2023/07/05 00:51:31;;;;;;;12.80;7.25;;;;;;;21.08;66.49;100417.67;1743943;82;20166;-68
2023/07/05 00:54:00;;;;;;;12.03;7.62;;;;;;;21.07;66.29;100422.95;1743820;82;21479;-68
2023/07/05 00:56:35;;;;;;;10.95;6.95;;;;;;;21.06;65.95;100422.67;1743806;82;21031;-70
2023/07/05 00:59:04;;;;;;;11.00;7.65;;;;;;;21.06;65.69;100424.06;1743949;82;21455;-68
2023/07/05 01:01:34;;;;;;;12.85;7.10;;;;;;;21.08;65.48;100424.63;1723405;82;21039;-69
2023/07/05 01:04:04;;;;;;;13.90;7.42;;;;;;;21.10;65.43;100424.37;1743928;82;21019;-68
2023/07/05 01:06:33;;;;;;;11.18;7.12;;;;;;;21.12;65.34;100427.73;1744017;82;21051;-69
2023/07/05 01:09:04;;;;;;;12.33;7.12;;;;;;;21.06;65.44;100431.03;1744052;82;21004;-69
2023/07/05 01:11:51;;;;;;;11.63;6.85;;;;;;;21.04;65.43;100436.58;1744203;82;21501;-67
2023/07/05 01:14:47;;;;;;;10.48;7.33;;;;;;;21.01;65.39;100444.08;1743975;82;21039;-68
2023/07/05 01:17:52;;;;;;;12.47;7.12;;;;;;;21.00;65.46;100452.14;1743998;82;21027;-68
2023/07/05 01:20:41;;;;;;;10.80;6.55;;;;;;;21.03;65.06;100456.64;1732924;82;21463;-68
2023/07/05 01:23:15;;;;;;;11.05;7.00;;;;;;;21.05;64.55;100450.80;1743854;82;21027;-69
2023/07/05 01:26:07;;;;;;;10.68;7.05;;;;;;;21.08;64.18;100446.09;1720871;82;21052;-68
2023/07/05 01:28:55;;;;;;;11.93;6.55;;;;;;;21.03;64.45;100446.05;1743847;82;21744;-68
2023/07/05 01:32:00;;;;;;;11.60;7.35;;;;;;;20.95;64.33;100438.17;1743898;82;21023;-69
2023/07/05 01:35:05;;;;;;;16.37;7.65;;;;;;;20.97;63.87;100445.16;1743920;82;21493;-68
2023/07/05 01:37:40;;;;;;;11.95;6.90;;;;;;;20.95;64.33;100440.95;1707950;84;21083;-67
2023/07/05 01:40:32;;;;;;;12.73;6.50;;;;;;;20.91;63.75;100447.61;1744103;82;21062;-70
2023/07/05 01:43:11;;;;;;;9.58;6.53;;;;;;;20.93;63.34;100439.83;1744139;82;21477;-67
2023/07/05 01:46:17;;;;;;;16.20;6.75;;;;;;;20.96;63.04;100440.70;1722945;82;21020;-69
2023/07/05 01:49:21;;;;;;;12.40;6.83;;;;;;;20.97;63.57;100436.80;1744204;82;21091;-68
2023/07/05 01:52:04;;;;;;;13.62;6.75;;;;;;;20.96;63.67;100440.70;1744231;82;20991;-69
2023/07/05 01:55:08;;;;;;;12.13;6.85;;;;;;;20.98;63.22;100449.63;1744243;82;21059;-68
2023/07/05 01:57:57;;;;;;;10.35;6.65;;;;;;;20.97;63.04;100449.34;1743914;82;21517;-67
2023/07/05 02:00:25;;;;;;;;;;;;;;;20.95;62.90;100450.70;1725661;82;21115;-68
2023/07/05 02:03:05;;;;;;;10.65;6.35;;;;;;;20.92;62.80;100449.30;1743959;82;20232;-67
2023/07/05 02:05:34;;;;;;;14.58;7.08;;;;;;;20.93;62.72;100447.34;1744252;82;21055;-68
2023/07/05 02:08:04;;;;;;;14.30;6.92;;;;;;;20.91;62.76;100446.77;1744234;82;21031;-68
2023/07/05 02:10:34;;;;;;;12.53;6.80;;;;;;;20.90;62.43;100440.36;1743977;82;21057;-67
2023/07/05 02:13:06;;;;;;;9.25;6.37;;;;;;;20.92;61.82;100438.70;1743943;82;21483;-67
2023/07/05 02:15:38;;;;;;;12.63;6.35;;;;;;;20.93;62.18;100437.05;1716518;83;21063;-68
2023/07/05 02:18:07;;;;;;;10.95;6.70;;;;;;;20.93;62.35;100439.83;1722206;83;21094;-69
2023/07/05 02:20:37;;;;;;;11.18;7.10;;;;;;;20.98;61.86;100440.43;1722139;83;21015;-67
2023/07/05 02:23:06;;;;;;;11.38;6.92;;;;;;;21.02;61.67;100434.61;1722374;83;21027;-69
2023/07/05 02:25:36;;;;;;;17.52;8.35;;;;;;;21.06;61.56;100442.73;1722095;83;21027;-68
2023/07/05 02:28:09;;;;;;;11.57;6.97;;;;;;;21.07;61.15;100439.67;1722098;83;21060;-68
2023/07/05 02:30:38;;;;;;;11.35;7.22;;;;;;;21.10;60.71;100439.14;1721983;83;21035;-68
2023/07/05 02:33:07;;;;;;;12.03;8.40;;;;;;;21.15;60.15;100438.34;1722085;83;21035;-68
2023/07/05 02:35:39;;;;;;;12.60;7.50;;;;;;;21.19;59.25;100442.27;1722272;82;21031;-69
2023/07/05 02:38:08;;;;;;;11.85;7.12;;;;;;;21.23;58.80;100437.88;1722078;83;21059;-68
2023/07/05 02:40:37;;;;;;;14.30;7.33;;;;;;;21.27;58.41;100434.00;1722000;83;21035;-69
2023/07/05 02:43:07;;;;;;;15.90;7.30;;;;;;;21.31;58.23;100429.02;1722227;83;21015;-67
2023/07/05 02:45:36;;;;;;;11.60;6.80;;;;;;;21.33;58.13;100425.96;1722049;82;20999;-68
2023/07/05 02:48:06;;;;;;;11.33;6.90;;;;;;;21.35;58.30;100419.56;1722122;83;21040;-67
2023/07/05 02:50:39;;;;;;;11.93;6.72;;;;;;;21.35;58.37;100419.01;1722002;83;21486;-68
2023/07/05 02:53:08;;;;;;;12.25;6.65;;;;;;;21.35;58.44;100414.83;1722047;83;21098;-69
2023/07/05 02:55:37;;;;;;;12.37;7.12;;;;;;;21.39;58.77;100413.19;1722097;82;21589;-68
2023/07/05 02:58:06;;;;;;;16.32;7.10;;;;;;;21.44;59.08;100417.95;1704339;83;21083;-67
2023/07/05 03:00:36;;;;;;;12.25;7.22;;;;;;;21.45;59.45;100408.48;1722134;82;21031;-68
2023/07/05 03:03:05;;;;;;;10.43;7.25;;;;;;;21.47;59.61;100411.88;1722203;82;21063;-69
2023/07/05 03:05:35;;;;;;;12.88;6.92;;;;;;;21.46;59.90;100413.81;1722217;83;21067;-67
2023/07/05 03:08:05;;;;;;;15.10;7.67;;;;;;;21.48;60.59;100410.77;1722253;83;21059;-68
2023/07/05 03:10:39;;;;;;;11.90;7.50;;;;;;;21.48;61.23;100409.37;1722137;83;21032;-69
2023/07/05 03:13:08;;;;;;;12.00;7.58;;;;;;;21.49;61.29;100413.83;1722296;83;21069;-68
2023/07/05 03:15:39;;;;;;;16.85;7.10;;;;;;;21.52;61.30;100413.30;1728664;82;21039;-67
2023/07/05 03:18:08;;;;;;;12.78;7.03;;;;;;;21.51;61.19;100411.62;1751819;82;21571;-68
2023/07/05 03:20:39;;;;;;;11.05;7.12;;;;;;;21.47;61.10;100408.53;1751910;82;20991;-68
2023/07/05 03:23:08;;;;;;;12.35;7.25;;;;;;;21.45;61.11;100408.48;1751996;82;21062;-68
2023/07/05 03:25:37;;;;;;;14.73;7.42;;;;;;;21.49;61.15;100406.86;1752007;82;21038;-68
2023/07/05 03:28:08;;;;;;;14.50;7.62;;;;;;;21.50;61.10;100401.02;1751905;82;21504;-68
2023/07/05 03:30:36;;;;;;;9.93;6.80;;;;;;;21.57;60.58;100402.72;1751777;82;21019;-67
2023/07/05 03:33:05;;;;;;;12.35;7.53;;;;;;;21.61;60.29;100396.34;1752024;82;21153;-66
2023/07/05 03:35:34;;;;;;;15.95;7.60;;;;;;;21.66;60.29;100397.75;1751900;82;21063;-68
2023/07/05 03:38:03;;;;;;;16.52;8.38;;;;;;;21.71;60.31;100396.94;1752074;82;21031;-69
2023/07/05 03:40:33;;;;;;;13.40;8.33;;;;;;;21.74;59.99;100395.84;1751776;82;21034;-69
2023/07/05 03:43:01;;;;;;;23.22;8.15;;;;;;;21.77;59.76;100394.46;1751861;82;21030;-68
2023/07/05 03:45:30;;;;;;;13.50;7.30;;;;;;;21.77;59.73;100397.25;1751759;82;21435;-67
2023/07/05 03:47:59;;;;;;;14.38;7.92;;;;;;;21.81;59.95;100404.80;1721992;82;21105;-68
2023/07/05 03:50:28;;;;;;;10.03;6.97;;;;;;;21.83;59.91;100406.77;1752546;82;21123;-70
2023/07/05 03:52:57;;;;;;;12.75;7.17;;;;;;;21.87;59.51;100409.01;1751891;82;21046;-68
2023/07/05 03:55:26;;;;;;;16.20;8.00;;;;;;;21.87;59.19;100402.87;1752098;82;21046;-67
2023/07/05 03:57:56;;;;;;;17.60;8.50;;;;;;;21.88;59.18;100393.95;1671784;85;21102;-69
2023/07/05 04:00:24;;;;;;;11.93;8.15;;;;;;;21.91;59.36;100392.84;1671881;85;21020;-68
2023/07/05 04:02:53;;;;;;;17.32;9.03;;;;;;;21.97;59.47;100396.50;1671551;86;21063;-68
2023/07/05 04:05:23;;;;;;;13.48;7.22;;;;;;;22.01;59.82;100401.81;1671667;86;21071;-68
2023/07/05 04:07:52;;;;;;;12.93;8.10;;;;;;;22.07;60.16;100393.77;1671386;86;21122;-69
2023/07/05 04:10:20;;;;;;;14.95;7.97;;;;;;;22.10;60.30;100393.22;1671458;86;21475;-68
2023/07/05 04:12:49;;;;;;;13.55;8.03;;;;;;;22.14;60.19;100389.64;1671623;86;21083;-67
2023/07/05 04:15:21;;;;;;;16.77;7.85;;;;;;;22.18;60.01;100394.13;1671747;86;21068;-69
2023/07/05 04:17:50;;;;;;;16.20;8.30;;;;;;;22.24;59.74;100400.00;1671482;86;21044;-68
2023/07/05 04:20:19;;;;;;;15.20;7.95;;;;;;;22.28;59.50;100398.89;1671353;86;21111;-68
2023/07/05 04:22:48;;;;;;;17.12;8.53;;;;;;;22.30;59.18;100398.90;1720247;82;21050;-67
2023/07/05 04:25:17;;;;;;;15.78;8.30;;;;;;;22.32;59.17;100398.06;1752178;82;21059;-67
2023/07/05 04:27:46;;;;;;;16.35;8.78;;;;;;;22.38;58.95;100403.94;1723000;82;21070;-68
2023/07/05 04:30:15;;;;;;;14.83;8.45;;;;;;;22.41;58.64;100405.34;1752011;82;21094;-69
2023/07/05 04:32:44;;;;;;;21.50;9.60;;;;;;;22.45;58.72;100408.70;1752070;82;21055;-68
2023/07/05 04:35:13;;;;;;;19.00;8.15;;;;;;;22.48;58.84;100398.94;1751766;82;21261;-68
2023/07/05 04:37:42;;;;;;;27.02;12.00;;;;;;;22.54;58.71;100403.97;1751909;82;21082;-68
2023/07/05 04:40:12;;;;;;;21.40;9.63;;;;;;;22.56;58.47;100400.34;1751849;82;21050;-68
2023/07/05 04:42:40;;;;;;;17.10;8.70;;;;;;;22.58;58.32;100400.34;1751590;82;21035;-68
2023/07/05 04:45:10;;;;;;;21.65;9.03;;;;;;;22.62;58.08;100404.82;1751881;82;20987;-68
2023/07/05 04:47:39;;;;;;;19.27;9.40;;;;;;;22.63;58.03;100403.14;1723003;82;21459;-69
2023/07/05 04:50:08;;;;;;;29.98;10.68;;;;;;;22.69;57.83;100402.59;1751774;82;21035;-68
2023/07/05 04:52:37;;;;;;;24.05;9.18;;;;;;;22.70;57.65;100400.08;1751762;82;21035;-69
2023/07/05 04:55:07;;;;;;;23.67;9.08;;;;;;;22.73;57.63;100408.74;1751987;82;21055;-69
2023/07/05 04:57:38;;;;;;;16.85;8.73;;;;;;;22.78;57.56;100406.55;1751889;82;21695;-70
2023/07/05 05:00:08;;;;;;;21.27;8.88;;;;;;;22.82;57.07;100410.48;1751899;82;21046;-70
2023/07/05 05:02:39;;;;;;;21.50;8.98;;;;;;;22.83;56.98;100410.77;1752003;82;21011;-68
2023/07/05 05:05:08;;;;;;;19.37;9.03;;;;;;;22.86;56.96;100412.16;1751985;82;20991;-67
2023/07/05 05:07:37;;;;;;;28.70;8.73;;;;;;;22.89;56.98;100406.86;1751961;82;21103;-68
2023/07/05 05:10:07;;;;;;;23.47;8.53;;;;;;;22.93;56.99;100409.93;1752110;82;21082;-68
2023/07/05 05:12:36;;;;;;;24.40;8.93;;;;;;;22.96;56.81;100414.41;1751810;82;21449;-70
2023/07/05 05:15:06;;;;;;;22.30;8.98;;;;;;;23.00;56.77;100419.71;1751887;82;21474;-68
2023/07/05 05:17:36;;;;;;;26.23;9.10;;;;;;;23.04;56.65;100413.84;1745613;82;21043;-68
2023/07/05 05:20:07;;;;;;;29.35;11.33;;;;;;;23.10;56.46;100409.09;1743978;82;20987;-70
2023/07/05 05:22:36;;;;;;;27.35;9.75;;;;;;;23.15;56.43;100401.26;1743954;82;21039;-68
2023/07/05 05:25:06;;;;;;;22.82;9.23;;;;;;;23.21;56.76;100402.93;1744008;82;21043;-69
2023/07/05 05:27:35;;;;;;;25.68;8.68;;;;;;;23.26;56.54;100396.77;1744163;82;21055;-69
2023/07/05 05:30:04;;;;;;;16.45;8.30;;;;;;;23.34;56.40;100391.16;1743856;82;21125;-70
2023/07/05 05:32:34;;;;;;;24.65;9.25;;;;;;;23.42;56.08;100382.80;1744039;82;21020;-69
2023/07/05 05:35:04;;;;;;;23.60;9.80;;;;;;;23.49;55.90;100378.58;1744202;82;21031;-68
2023/07/05 05:37:34;;;;;;;20.95;8.48;;;;;;;23.57;55.70;100384.18;1744306;82;21031;-69
2023/07/05 05:40:05;;;;;;;18.05;8.43;;;;;;;23.63;55.82;100381.08;1743898;82;21462;-68
2023/07/05 05:42:35;;;;;;;22.30;9.05;;;;;;;23.69;55.84;100384.14;1743883;82;21000;-68
2023/07/05 05:45:05;;;;;;;22.85;9.23;;;;;;;23.73;55.85;100382.17;1744028;82;21047;-67
2023/07/05 05:47:35;;;;;;;26.93;8.78;;;;;;;23.76;55.63;100383.83;1743935;82;21486;-68
2023/07/05 05:50:04;;;;;;;21.45;8.48;;;;;;;23.80;55.91;100380.73;1744125;82;21051;-68
2023/07/05 05:52:33;;;;;;;21.68;9.15;;;;;;;23.82;56.51;100386.05;1743888;82;21046;-69
2023/07/05 05:55:03;;;;;;;19.55;10.20;;;;;;;23.84;57.46;100381.00;1722635;82;21115;-69
2023/07/05 05:57:32;;;;;;;20.60;10.43;;;;;;;23.83;58.34;100377.37;1743973;82;21292;-69
2023/07/05 06:00:00;;;;;;;24.82;10.05;;;;;;;23.84;58.96;100372.61;1743916;82;21459;-69
2023/07/05 06:02:32;;;;;;;19.40;9.73;;;;;;;23.83;57.73;100373.73;1744292;82;21055;-69
2023/07/05 06:05:03;;;;;;;21.30;9.68;;;;;;;23.83;57.03;100367.58;1744065;82;21003;-69
2023/07/05 06:07:32;;;;;;;19.85;9.93;;;;;;;23.86;57.01;100370.36;1744061;82;21027;-68
2023/07/05 06:10:01;;;;;;;20.62;10.40;;;;;;;23.89;57.88;100361.39;1744158;82;21051;-70
2023/07/05 06:12:32;;;;;;;20.23;8.90;;;;;;;23.93;58.73;100368.92;1743847;82;21034;-70
2023/07/05 06:15:02;;;;;;;23.15;9.03;;;;;;;23.97;57.89;100375.63;1744094;82;21407;-69
2023/07/05 06:17:30;;;;;;;17.77;9.10;;;;;;;24.00;57.32;100368.61;1725047;82;21082;-68
2023/07/05 06:19:59;;;;;;;20.48;8.75;;;;;;;24.04;56.52;100371.11;1754321;82;21038;-70
2023/07/05 06:22:28;;;;;;;20.75;9.13;;;;;;;24.05;55.88;100378.39;1754128;82;21733;-69
2023/07/05 06:24:58;;;;;;;20.02;9.45;;;;;;;24.10;55.87;100380.35;1754101;82;21043;-69
2023/07/05 06:27:26;;;;;;;17.50;8.30;;;;;;;24.16;55.58;100382.84;1754260;82;21023;-68
2023/07/05 06:29:55;;;;;;;20.17;8.83;;;;;;;24.24;55.26;100379.99;1754132;81;21058;-68
2023/07/05 06:32:25;;;;;;;23.90;8.90;;;;;;;24.31;55.67;100374.94;1754268;82;21054;-69
2023/07/05 06:34:54;;;;;;;15.65;7.70;;;;;;;24.39;55.06;100373.50;1754167;82;21077;-68
2023/07/05 06:37:23;;;;;;;14.23;7.28;;;;;;;24.49;53.68;100378.47;1754099;82;21066;-67
2023/07/05 06:39:52;;;;;;;13.70;7.60;;;;;;;24.62;51.79;100371.37;1754180;82;21050;-70
2023/07/05 06:42:20;;;;;;;15.70;7.67;;;;;;;24.77;50.33;100371.84;1754277;82;20995;-69
2023/07/05 06:44:52;;;;;;;14.73;7.28;;;;;;;24.86;50.02;100370.92;1753658;82;21075;-69
2023/07/05 06:47:21;;;;;;;12.53;7.53;;;;;;;24.98;49.44;100378.98;1754282;82;21054;-68
2023/07/05 06:49:49;;;;;;;14.87;7.55;;;;;;;25.11;48.66;100385.87;1754224;82;21038;-68
2023/07/05 06:52:18;;;;;;;13.75;7.72;;;;;;;25.24;48.32;100382.38;1754197;82;21038;-70
2023/07/05 06:54:46;;;;;;;14.50;7.28;;;;;;;25.38;47.71;100379.18;1753932;81;21090;-69
2023/07/05 06:57:15;;;;;;;13.40;7.70;;;;;;;25.49;47.17;100382.14;1754146;82;20987;-69
2023/07/05 06:59:45;;;;;;;12.47;7.62;;;;;;;25.54;46.79;100379.28;1754136;82;21031;-69
2023/07/05 07:02:14;;;;;;;16.15;7.95;;;;;;;25.53;46.19;100377.61;1754212;82;21039;-69
2023/07/05 07:04:43;;;;;;;13.72;7.60;;;;;;;25.51;46.54;100381.84;1754016;82;21106;-69
2023/07/05 07:07:13;;;;;;;16.40;7.40;;;;;;;25.51;46.50;100383.25;1754188;82;21022;-69
2023/07/05 07:09:43;;;;;;;14.68;7.42;;;;;;;25.48;46.81;100376.27;1754033;82;21775;-69
2023/07/05 07:12:12;;;;;;;18.65;7.78;;;;;;;25.48;46.27;100374.86;1754024;82;21090;-69
2023/07/05 07:14:41;;;;;;;11.35;7.15;;;;;;;25.48;46.12;100379.63;1753978;82;21047;-69
2023/07/05 07:17:10;;;;;;;13.40;7.35;;;;;;;25.48;46.33;100381.04;1750515;82;21019;-68
2023/07/05 07:19:39;;;;;;;16.40;7.72;;;;;;;25.50;46.31;100388.02;1743818;82;21560;-69
2023/07/05 07:22:08;;;;;;;16.17;8.13;;;;;;;25.51;46.62;100402.33;1743937;82;21423;-68
2023/07/05 07:24:37;;;;;;;14.55;8.03;;;;;;;25.49;46.60;100404.59;1744165;82;21071;-69
2023/07/05 07:27:07;;;;;;;16.50;7.65;;;;;;;25.50;46.95;100400.66;1744113;82;21434;-70
2023/07/05 07:29:36;;;;;;;14.38;7.92;;;;;;;25.46;46.93;100405.75;1723356;82;21073;-69
2023/07/05 07:32:08;;;;;;;15.95;9.13;;;;;;;25.42;47.28;100408.31;1744040;82;21071;-68
2023/07/05 07:34:37;;;;;;;12.75;8.05;;;;;;;25.44;47.37;100408.02;1723858;82;21086;-69
2023/07/05 07:37:06;;;;;;;11.60;8.23;;;;;;;25.45;47.36;100402.11;1744071;82;21070;-70
2023/07/05 07:39:36;;;;;;;13.68;8.50;;;;;;;25.44;47.56;100403.24;1743904;82;21066;-66
2023/07/05 07:42:06;;;;;;;15.25;8.28;;;;;;;25.43;47.80;100405.78;1743929;82;21012;-70
2023/07/05 07:44:35;;;;;;;12.60;8.60;;;;;;;25.43;47.91;100413.36;1744058;82;21513;-69
2023/07/05 07:47:06;;;;;;;16.10;8.05;;;;;;;25.38;47.72;100419.86;1743871;82;21019;-70
2023/07/05 07:49:36;;;;;;;11.90;8.30;;;;;;;25.33;48.04;100419.87;1744026;82;21027;-69
2023/07/05 07:52:10;;;;;;;16.65;8.55;;;;;;;25.34;48.45;100426.33;1746941;81;21072;-69
2023/07/05 07:54:38;;;;;;;14.18;8.55;;;;;;;25.31;48.77;100429.15;1746643;80;21024;-67
2023/07/05 07:57:08;;;;;;;15.03;8.20;;;;;;;25.34;49.06;100431.37;1699935;83;21036;-71
2023/07/05 07:59:41;;;;;;;18.17;8.48;;;;;;;25.40;49.30;100429.38;1695453;84;21804;-69
2023/07/05 08:02:14;;;;;;;14.38;9.30;;;;;;;25.45;49.40;100434.38;1743671;82;21483;-67
2023/07/05 08:04:45;;;;;;;16.32;8.58;;;;;;;25.47;49.27;100433.52;1743840;82;21045;-69
2023/07/05 08:07:17;;;;;;;12.88;8.15;;;;;;;25.52;49.10;100431.22;1743557;82;21063;-69
2023/07/05 08:09:50;;;;;;;18.95;8.55;;;;;;;25.59;48.70;100438.16;1747591;82;21071;-69
2023/07/05 08:12:17;;;;;;;14.00;7.85;;;;;;;25.63;48.63;100438.97;1687502;85;21087;-69
2023/07/05 08:14:46;;;;;;;12.15;7.90;;;;;;;25.67;49.21;100437.27;1749388;82;21047;-70
2023/07/05 08:17:16;;;;;;;13.65;8.90;;;;;;;25.73;48.43;100444.50;1746869;82;21122;-68
2023/07/05 08:19:45;;;;;;;19.98;9.05;;;;;;;25.82;47.87;100441.31;1666811;86;21207;-68
2023/07/05 08:22:14;;;;;;;19.05;9.08;;;;;;;25.85;47.85;100444.92;1740092;82;21107;-68
2023/07/05 08:24:45;;;;;;;16.10;8.35;;;;;;;25.86;47.97;100451.64;1666823;86;21068;-69
2023/07/05 08:27:13;;;;;;;14.50;8.25;;;;;;;25.87;48.02;100446.86;1750579;82;21100;-68
2023/07/05 08:29:42;;;;;;;14.85;8.50;;;;;;;25.87;47.77;100447.70;1752141;81;21056;-70
2023/07/05 08:32:11;;;;;;;14.23;8.65;;;;;;;25.83;47.80;100450.83;1752019;82;21072;-71
2023/07/05 08:34:40;;;;;;;13.38;8.70;;;;;;;25.82;47.76;100443.55;1751859;81;21471;-70
2023/07/05 08:37:08;;;;;;;13.18;8.10;;;;;;;25.85;47.74;100447.73;1724862;82;21060;-71
2023/07/05 08:39:37;;;;;;;13.60;9.10;;;;;;;25.87;47.40;100449.67;1751786;81;21048;-69
2023/07/05 08:42:29;;;;;;;14.70;8.85;;;;;;;25.86;47.60;100445.19;1751969;81;21530;-68
2023/07/05 08:45:20;;;;;;;26.62;10.45;;;;;;;25.86;48.18;100443.78;1749301;81;21442;-68
2023/07/05 08:47:54;;;;;;;15.30;8.68;;;;;;;25.84;47.95;100449.70;1752057;81;21443;-70
2023/07/05 08:50:34;;;;;;;11.40;8.55;;;;;;;25.79;48.64;100458.18;1751899;82;21080;-70
2023/07/05 08:53:15;;;;;;;14.85;8.83;;;;;;;25.77;48.64;100456.80;1751593;82;21488;-72
2023/07/05 08:56:01;;;;;;;14.23;8.68;;;;;;;25.75;48.95;100454.86;1751876;82;21444;-71
2023/07/05 08:58:43;;;;;;;17.75;8.85;;;;;;;25.71;48.94;100459.39;1751961;82;21511;-70
2023/07/05 09:01:32;;;;;;;15.50;9.28;;;;;;;25.71;49.43;100463.61;1721320;82;21030;-66
2023/07/05 09:04:01;;;;;;;13.72;8.53;;;;;;;25.74;49.31;100468.06;1749079;81;21034;-64
2023/07/05 09:06:44;;;;;;;14.05;8.53;;;;;;;25.81;49.07;100467.71;1749323;82;21276;-65
2023/07/05 09:09:44;;;;;;;18.52;9.15;;;;;;;25.84;49.38;100468.52;1748797;81;21449;-70
2023/07/05 09:12:24;;;;;;;13.32;8.30;;;;;;;25.85;49.55;100468.22;1748631;81;21030;-70
2023/07/05 09:15:01;;;;;;;15.53;8.88;;;;;;;25.89;49.69;100468.46;1748907;82;21030;-70
2023/07/05 09:17:47;;;;;;;14.18;9.13;;;;;;;25.90;49.69;100468.73;1752599;81;21071;-70
2023/07/05 09:20:41;;;;;;;13.93;8.55;;;;;;;25.88;49.39;100469.59;1767438;81;21012;-70
2023/07/05 09:23:16;;;;;;;13.58;9.10;;;;;;;25.87;50.04;100471.56;1767495;81;21000;-70
2023/07/05 09:25:46;;;;;;;13.95;9.00;;;;;;;25.87;50.18;100471.56;1767417;81;21098;-71
2023/07/05 09:28:25;;;;;;;17.98;9.00;;;;;;;25.89;50.79;100476.31;1739050;81;21086;-69
2023/07/05 09:30:54;;;;;;;20.17;11.08;;;;;;;25.86;50.89;100467.66;1767112;81;21012;-72
2023/07/05 09:33:27;;;;;;;12.28;8.50;;;;;;;25.85;50.60;100473.00;1689243;85;21059;-69
2023/07/05 09:35:56;;;;;;;13.88;8.83;;;;;;;25.85;50.68;100471.03;1767257;81;21459;-72
2023/07/05 09:38:42;;;;;;;15.40;9.20;;;;;;;25.86;50.91;100467.66;1740059;81;21063;-69
2023/07/05 09:41:20;;;;;;;16.82;9.48;;;;;;;25.87;50.72;100458.93;1689684;85;21063;-72
2023/07/05 09:43:49;;;;;;;14.85;8.55;;;;;;;25.91;50.29;100454.39;1767669;81;21087;-71
2023/07/05 09:46:32;;;;;;;19.25;9.05;;;;;;;25.95;49.89;100458.00;1689533;85;21068;-70
2023/07/05 09:49:02;;;;;;;17.25;8.85;;;;;;;25.97;49.71;100458.55;1767389;81;21032;-68
2023/07/05 09:51:31;;;;;;;14.50;8.93;;;;;;;26.03;49.94;100458.78;1689514;85;21095;-70
2023/07/05 09:54:02;;;;;;;20.30;10.18;;;;;;;26.14;49.79;100453.31;1767278;81;21075;-70
2023/07/05 09:56:31;;;;;;;15.83;9.40;;;;;;;26.23;49.86;100457.96;1767330;81;21506;-69
2023/07/05 09:59:10;;;;;;;20.08;9.53;;;;;;;26.35;49.21;100456.72;1689708;85;21043;-70
2023/07/05 10:01:42;;;;;;;16.75;8.50;;;;;;;26.42;48.83;100465.05;1737019;82;21051;-71
2023/07/05 10:04:11;;;;;;;12.68;8.75;;;;;;;26.50;48.42;100457.34;1736753;82;21071;-71
2023/07/05 10:06:44;;;;;;;19.32;9.18;;;;;;;26.57;47.95;100456.14;1662016;86;21055;-70
2023/07/05 10:09:16;;;;;;;17.40;10.75;;;;;;;26.61;48.51;100452.98;1736992;82;21475;-71
2023/07/05 10:11:47;;;;;;;19.87;10.20;;;;;;;26.64;48.50;100456.03;1661512;86;21043;-68
2023/07/05 10:14:18;;;;;;;14.78;9.48;;;;;;;26.68;48.39;100449.27;1689587;85;21091;-71
2023/07/05 10:16:49;;;;;;;14.63;8.55;;;;;;;26.73;48.66;100452.83;1736852;82;21031;-70
2023/07/05 10:19:28;;;;;;;18.52;8.58;;;;;;;26.79;48.38;100447.97;1736739;82;21075;-71
2023/07/05 10:22:08;;;;;;;14.63;8.38;;;;;;;26.85;48.06;100447.58;1736763;82;21043;-69
2023/07/05 10:24:42;;;;;;;16.87;9.13;;;;;;;26.91;47.62;100449.74;1644948;86;21063;-70
2023/07/05 10:27:27;;;;;;;17.37;8.75;;;;;;;26.96;47.55;100448.25;1736494;82;21043;-71
2023/07/05 10:30:12;;;;;;;15.55;8.50;;;;;;;27.04;47.42;100458.00;1661972;85;21462;-70
2023/07/05 10:32:40;;;;;;;13.10;8.68;;;;;;;27.13;47.01;100454.19;1733418;82;21443;-69
2023/07/05 10:35:22;;;;;;;15.03;8.73;;;;;;;27.26;46.99;100446.94;1736908;82;21451;-69
2023/07/05 10:37:51;;;;;;;13.95;8.95;;;;;;;27.38;46.92;100451.54;1736990;82;21067;-69
2023/07/05 10:40:21;;;;;;;14.43;9.40;;;;;;;27.46;45.95;100452.23;1736815;82;21478;-70
2023/07/05 10:42:57;;;;;;;17.80;8.88;;;;;;;27.50;46.27;100455.84;1736968;82;21479;-70
2023/07/05 10:45:34;;;;;;;13.58;8.70;;;;;;;27.50;45.85;100453.86;1661641;86;21007;-70
2023/07/05 10:48:01;;;;;;;15.00;8.70;;;;;;;27.50;45.50;100451.63;1736807;82;21056;-69
2023/07/05 10:50:31;;;;;;;15.15;9.20;;;;;;;27.44;45.72;100452.28;1737166;82;21067;-70
2023/07/05 10:53:14;;;;;;;16.02;8.30;;;;;;;27.46;46.43;100453.64;1736913;82;21043;-70
2023/07/05 10:56:04;;;;;;;14.33;8.08;;;;;;;27.51;45.99;100444.27;1736949;82;21093;-70
2023/07/05 10:58:43;;;;;;;18.45;8.45;;;;;;;27.57;45.49;100444.44;1736841;82;21079;-69
2023/07/05 11:01:18;;;;;;;15.72;8.15;;;;;;;27.62;45.67;100446.36;1753364;82;20999;-70
2023/07/05 11:03:52;;;;;;;18.48;9.03;;;;;;;27.63;45.38;100450.27;1757209;82;21162;-69
2023/07/05 11:06:21;;;;;;;13.30;8.73;;;;;;;27.68;45.31;100445.95;1757035;82;21012;-70
2023/07/05 11:08:51;;;;;;;14.68;8.68;;;;;;;27.78;45.28;100442.10;1756915;82;21004;-69
2023/07/05 11:11:27;;;;;;;16.52;9.18;;;;;;;27.78;45.28;100442.10;1757111;82;21086;-69
2023/07/05 11:14:00;;;;;;;10.73;8.00;;;;;;;27.82;44.29;100439.50;1757531;82;21027;-70
2023/07/05 11:16:30;;;;;;;11.55;7.30;;;;;;;27.83;44.30;100436.37;1757001;82;21439;-69
2023/07/05 11:19:05;;;;;;;17.87;8.53;;;;;;;27.85;43.77;100441.12;1757064;80;21126;-70
2023/07/05 11:21:40;;;;;;;13.45;7.50;;;;;;;27.83;43.91;100436.37;1756988;82;21094;-69
2023/07/05 11:24:15;;;;;;;13.80;8.15;;;;;;;27.79;44.08;100438.97;1757057;82;21254;-70
2023/07/05 11:26:45;;;;;;;12.93;8.13;;;;;;;27.81;43.87;100433.03;1754805;82;21492;-70
2023/07/05 11:29:34;;;;;;;15.35;8.18;;;;;;;27.83;44.02;100429.91;1757124;82;21028;-70
2023/07/05 11:32:06;;;;;;;12.63;7.83;;;;;;;27.90;43.82;100441.02;1757017;82;21098;-69
2023/07/05 11:34:46;;;;;;;14.58;7.90;;;;;;;27.95;43.28;100446.55;1756994;82;21063;-69
2023/07/05 11:37:23;;;;;;;16.25;8.33;;;;;;;27.99;43.25;100432.70;1757021;80;21464;-70
2023/07/05 11:39:52;;;;;;;14.20;8.83;;;;;;;27.99;43.53;100420.03;1756976;82;21533;-70
2023/07/05 11:42:31;;;;;;;14.33;7.35;;;;;;;27.99;43.53;100420.03;1757150;80;21095;-71